This is the latest recevied weather packets stored in our database for station/object OK1PHM-12. If no packets are shown the sender has not sent any weather packets the latest 10 day(s).
| Time | Temp. | Humidity | Pressure | Rain* | Wind** | Luminosity | Snow |
|---|---|---|---|---|---|---|---|
| 1777632668 | 22.22° C | 32% | 1029.5 hPa | - | - | - | - |
| 1777630866 | 21.11° C | 36% | 1029.7 hPa | - | - | - | - |
| 1777629964 | 22.78° C | 33% | 1029.8 hPa | - | - | - | - |
| 1777629064 | 21.67° C | 37% | 1029.9 hPa | - | - | - | - |
| 1777628163 | 20° C | 39% | 1030 hPa | - | - | - | - |
| 1777627262 | 20° C | 40% | 1030.1 hPa | - | - | - | - |
| 1777626361 | 20° C | 40% | 1030.2 hPa | - | - | - | - |
| 1777625460 | 17.78° C | 42% | 1030.2 hPa | - | - | - | - |
| 1777624560 | 19.44° C | 42% | 1030.3 hPa | - | - | - | - |
| 1777623659 | 17.78° C | 45% | 1030.4 hPa | - | - | - | - |
| 1777622758 | 17.22° C | 46% | 1030.4 hPa | - | - | - | - |
| 1777621857 | 16.11° C | 48% | 1030.6 hPa | - | - | - | - |
| 1777620956 | 15.56° C | 47% | 1030.7 hPa | - | - | - | - |
| 1777620055 | 15.56° C | 46% | 1030.7 hPa | - | - | - | - |
| 1777619155 | 16.11° C | 46% | 1030.6 hPa | - | - | - | - |
| 1777618254 | 15° C | 47% | 1030.5 hPa | - | - | - | - |
| 1777617353 | 16.67° C | 43% | 1030.5 hPa | - | - | - | - |
| 1777616452 | 17.22° C | 41% | 1030.5 hPa | - | - | - | - |
| 1777615551 | 16.67° C | 43% | 1030.4 hPa | - | - | - | - |
| 1777614650 | 16.11° C | 43% | 1030.4 hPa | - | - | - | - |
| 1777613750 | 15° C | 46% | 1030.4 hPa | - | - | - | - |
| 1777612848 | 14.44° C | 52% | 1030.6 hPa | - | - | - | - |
| 1777611947 | 17.22° C | 45% | 1030.5 hPa | - | - | - | - |
| 1777611046 | 15° C | 54% | 1030.7 hPa | - | - | - | - |
| 1777610145 | 11.11° C | 63% | 1030.6 hPa | - | - | - | - |
* Rain since midnight (hover to see other rain measurements)
** Current wind speed in m/s (hover to see current wind gust speed)